createdAt,value
2016-01-29T00:00:04.120Z,19.14
2016-01-29T00:01:04.200Z,19.12
2016-01-29T00:02:04.251Z,19.15
2016-01-29T00:03:04.316Z,19.12
2016-01-29T00:04:04.350Z,19.07
2016-01-29T00:05:04.399Z,19.08
2016-01-29T00:06:04.485Z,19.14
2016-01-29T00:07:04.533Z,19.07
2016-01-29T00:08:04.599Z,19.04
2016-01-29T00:09:04.633Z,19.07
2016-01-29T00:10:04.713Z,19.08
2016-01-29T00:11:04.748Z,19.11
2016-01-29T00:12:04.809Z,19.08
2016-01-29T00:13:04.876Z,19.15
2016-01-29T00:14:04.924Z,19.11
2016-01-29T00:15:04.973Z,19.09
2016-01-29T00:16:05.040Z,19.12
2016-01-29T00:17:05.089Z,19.09
2016-01-29T00:18:05.155Z,19.09
2016-01-29T00:19:05.221Z,19.12
2016-01-29T00:20:05.286Z,19.12
2016-01-29T00:21:05.335Z,19.12
2016-01-29T00:22:05.385Z,19.09
2016-01-29T00:23:05.451Z,19.08
2016-01-29T00:24:05.500Z,19.04
2016-01-29T00:25:05.566Z,19.02
2016-01-29T00:26:05.601Z,19.08
2016-01-29T00:27:05.667Z,19.08
2016-01-29T00:28:05.716Z,19.08
2016-01-29T00:29:05.767Z,19.08
2016-01-29T00:30:05.834Z,18.96
2016-01-29T00:31:05.747Z,19.07
2016-01-29T00:32:05.780Z,19.04
2016-01-29T00:33:06.017Z,18.96
2016-01-29T00:34:06.083Z,19
2016-01-29T00:35:06.102Z,19.07
2016-01-29T00:36:06.171Z,19.07
2016-01-29T00:37:06.236Z,19.07
2016-01-29T00:38:06.273Z,19.07
2016-01-29T00:39:06.337Z,19.07
2016-01-29T00:40:06.421Z,19.02
2016-01-29T00:41:06.455Z,19.04
2016-01-29T00:42:06.504Z,18.95
2016-01-29T00:43:06.571Z,19.07
2016-01-29T00:44:06.651Z,18.98
2016-01-29T00:45:06.684Z,19.02
2016-01-29T00:46:06.735Z,19
2016-01-29T00:47:06.800Z,18.92
2016-01-29T00:48:06.897Z,19.04
2016-01-29T00:49:06.931Z,18.98
2016-01-29T00:50:06.997Z,18.96
2016-01-29T00:51:07.015Z,18.96
2016-01-29T00:52:07.082Z,19.09
2016-01-29T00:53:06.991Z,19.04
2016-01-29T00:54:07.182Z,19.07
2016-01-29T00:55:07.246Z,19.07
2016-01-29T00:56:07.312Z,18.93
2016-01-29T00:57:07.390Z,19.07
2016-01-29T00:58:07.410Z,19.04
2016-01-29T00:59:07.475Z,19.07
2016-01-29T01:00:07.525Z,18.95
2016-01-29T01:01:07.575Z,19.02
2016-01-29T01:02:07.655Z,19
2016-01-29T01:03:07.767Z,19.02
2016-01-29T01:04:07.771Z,19
2016-01-29T01:05:07.805Z,18.99
2016-01-29T01:06:07.855Z,19.07
2016-01-29T01:07:07.936Z,18.99
2016-01-29T01:08:08.018Z,18.99
2016-01-29T01:09:08.035Z,18.98
2016-01-29T01:10:08.101Z,19.04
2016-01-29T01:11:08.182Z,18.98
2016-01-29T01:12:08.202Z,19
2016-01-29T01:13:08.267Z,19.02
2016-01-29T01:14:08.333Z,18.98
2016-01-29T01:15:08.367Z,18.99
2016-01-29T01:16:08.433Z,19.02
2016-01-29T01:17:08.483Z,19.02
2016-01-29T01:18:08.548Z,18.99
2016-01-29T01:19:08.613Z,18.98
2016-01-29T01:20:08.647Z,19.04
2016-01-29T01:21:08.729Z,19.04
2016-01-29T01:22:08.778Z,18.96
2016-01-29T01:23:08.844Z,19.04
2016-01-29T01:24:08.879Z,18.98
2016-01-29T01:25:08.944Z,18.93
2016-01-29T01:26:09.009Z,19.02
2016-01-29T01:27:09.052Z,18.99
2016-01-29T01:28:09.156Z,18.89
2016-01-29T01:29:09.159Z,18.89
2016-01-29T01:30:09.224Z,18.9
2016-01-29T01:31:09.274Z,18.88
2016-01-29T01:32:09.341Z,18.9
2016-01-29T01:33:09.389Z,18.89
2016-01-29T01:34:09.283Z,18.89
2016-01-29T01:35:09.505Z,18.88
2016-01-29T01:36:09.570Z,18.95
2016-01-29T01:37:09.620Z,18.93
2016-01-29T01:38:09.700Z,18.88
2016-01-29T01:39:09.735Z,18.93
2016-01-29T01:40:09.800Z,18.89
2016-01-29T01:41:09.851Z,18.9
2016-01-29T01:42:09.900Z,18.88
2016-01-29T01:43:09.950Z,18.9
2016-01-29T01:44:10.032Z,18.9
2016-01-29T01:45:10.066Z,18.83
2016-01-29T01:46:10.131Z,18.84
2016-01-29T01:47:10.180Z,18.88
2016-01-29T01:48:10.249Z,18.89
2016-01-29T01:49:10.299Z,18.84
2016-01-29T01:50:10.363Z,18.92
2016-01-29T01:51:10.413Z,18.92
2016-01-29T01:52:10.463Z,18.86
2016-01-29T01:53:10.543Z,18.89
2016-01-29T01:54:10.437Z,18.95
2016-01-29T01:55:10.643Z,18.86
2016-01-29T01:56:10.693Z,18.86
2016-01-29T01:57:10.759Z,18.89
2016-01-29T01:58:10.809Z,18.88
2016-01-29T01:59:10.874Z,18.86
2016-01-29T02:00:10.923Z,18.92
2016-01-29T02:01:10.974Z,18.86
2016-01-29T02:02:11.039Z,18.86
2016-01-29T02:03:10.936Z,18.92
2016-01-29T02:04:11.143Z,18.83
2016-01-29T02:05:11.193Z,18.9
2016-01-29T02:06:11.258Z,18.92
2016-01-29T02:07:11.323Z,18.86
2016-01-29T02:08:11.389Z,18.88
2016-01-29T02:09:11.423Z,18.92
2016-01-29T02:10:11.476Z,18.84
2016-01-29T02:11:11.557Z,18.89
2016-01-29T02:12:11.591Z,18.83
2016-01-29T02:13:11.657Z,18.88
2016-01-29T02:14:11.566Z,18.88
2016-01-29T02:15:11.771Z,18.81
2016-01-29T02:16:11.822Z,18.86
2016-01-29T02:17:11.886Z,18.89
2016-01-29T02:18:11.937Z,18.88
2016-01-29T02:19:11.987Z,18.84
2016-01-29T02:20:12.052Z,18.93
2016-01-29T02:21:12.101Z,18.83
2016-01-29T02:22:12.167Z,18.86
2016-01-29T02:23:12.232Z,18.81
2016-01-29T02:24:12.267Z,18.84
2016-01-29T02:25:12.332Z,18.84
2016-01-29T02:26:12.399Z,18.86
2016-01-29T02:27:12.432Z,18.83
2016-01-29T02:28:12.497Z,18.88
2016-01-29T02:29:12.564Z,18.86
2016-01-29T02:30:12.615Z,18.86
2016-01-29T02:31:12.665Z,18.89
2016-01-29T02:32:12.730Z,18.81
2016-01-29T02:33:12.779Z,18.88
2016-01-29T02:34:12.862Z,18.9
2016-01-29T02:35:12.927Z,18.83
2016-01-29T02:36:12.962Z,18.83
2016-01-29T02:37:13.011Z,18.84
2016-01-29T02:38:13.076Z,18.86
2016-01-29T02:39:13.126Z,18.83
2016-01-29T02:40:13.176Z,18.81
2016-01-29T02:41:13.226Z,18.8
2016-01-29T02:42:13.120Z,18.81
2016-01-29T02:43:13.357Z,18.73
2016-01-29T02:44:13.407Z,18.83
2016-01-29T02:45:13.456Z,18.78
2016-01-29T02:46:13.522Z,18.75
2016-01-29T02:47:13.572Z,18.8
2016-01-29T02:48:13.621Z,18.81
2016-01-29T02:49:13.686Z,18.75
2016-01-29T02:50:13.737Z,18.74
2016-01-29T02:51:13.803Z,18.75
2016-01-29T02:52:13.851Z,18.73
2016-01-29T02:53:13.933Z,18.83
2016-01-29T02:54:13.983Z,18.73
2016-01-29T02:55:14.017Z,18.84
2016-01-29T02:56:14.098Z,18.77
2016-01-29T02:57:14.149Z,18.74
2016-01-29T02:58:14.184Z,18.75
2016-01-29T02:59:14.233Z,18.77
2016-01-29T03:00:14.314Z,18.75
2016-01-29T03:01:14.348Z,18.7
2016-01-29T03:02:14.417Z,18.77
2016-01-29T03:03:14.498Z,18.68
2016-01-29T03:04:14.533Z,18.75
2016-01-29T03:05:14.597Z,18.73
2016-01-29T03:06:14.648Z,18.73
2016-01-29T03:07:14.714Z,18.75
2016-01-29T03:08:14.764Z,18.65
2016-01-29T03:09:14.812Z,18.73
2016-01-29T03:10:14.910Z,18.77
2016-01-29T03:11:14.930Z,18.68
2016-01-29T03:12:14.979Z,18.71
2016-01-29T03:13:15.029Z,18.77
2016-01-29T03:14:15.097Z,18.66
2016-01-29T03:15:15.193Z,18.68
2016-01-29T03:16:15.196Z,18.68
2016-01-29T03:17:15.371Z,18.78
2016-01-29T03:18:15.328Z,18.7
2016-01-29T03:19:15.392Z,18.66
2016-01-29T03:20:15.286Z,18.74
2016-01-29T03:21:15.476Z,18.75
2016-01-29T03:22:15.559Z,18.7
2016-01-29T03:23:15.640Z,18.7
2016-01-29T03:24:15.736Z,18.7
2016-01-29T03:25:15.708Z,18.63
2016-01-29T03:26:15.773Z,18.65
2016-01-29T03:27:15.822Z,18.59
2016-01-29T03:28:15.895Z,18.68
2016-01-29T03:29:15.945Z,18.6
2016-01-29T03:30:16.009Z,18.7
2016-01-29T03:31:16.043Z,18.73
2016-01-29T03:32:16.109Z,18.63
2016-01-29T03:33:16.206Z,18.68
2016-01-29T03:34:16.240Z,18.7
2016-01-29T03:35:16.289Z,18.7
2016-01-29T03:36:16.339Z,18.62
2016-01-29T03:37:16.389Z,18.71
2016-01-29T03:38:16.455Z,18.6
2016-01-29T03:39:16.506Z,18.65
2016-01-29T03:40:16.555Z,18.6
2016-01-29T03:41:16.605Z,18.65
2016-01-29T03:42:16.687Z,18.68
2016-01-29T03:43:16.721Z,18.65
2016-01-29T03:44:16.785Z,18.62
2016-01-29T03:45:16.867Z,18.65
2016-01-29T03:46:16.902Z,18.63
2016-01-29T03:47:16.951Z,18.6
2016-01-29T03:48:17.016Z,18.6
2016-01-29T03:49:17.084Z,18.68
2016-01-29T03:50:17.118Z,18.68
2016-01-29T03:51:17.261Z,18.59
2016-01-29T03:52:17.249Z,18.65
2016-01-29T03:53:17.305Z,18.6
2016-01-29T03:54:17.338Z,18.6
2016-01-29T03:55:17.420Z,18.6
2016-01-29T03:56:17.470Z,18.58
2016-01-29T03:57:17.519Z,18.59
2016-01-29T03:58:17.569Z,18.62
2016-01-29T03:59:17.634Z,18.6
2016-01-29T04:00:17.699Z,18.59
2016-01-29T04:01:17.737Z,18.53
2016-01-29T04:02:17.801Z,18.55
2016-01-29T04:03:17.852Z,18.56
2016-01-29T04:04:17.745Z,18.59
2016-01-29T04:05:17.967Z,18.63
2016-01-29T04:06:18.033Z,18.62
2016-01-29T04:07:18.082Z,18.52
2016-01-29T04:08:18.132Z,18.68
2016-01-29T04:09:18.197Z,18.56
2016-01-29T04:10:18.263Z,18.6
2016-01-29T04:11:18.297Z,18.56
2016-01-29T04:12:18.361Z,18.6
2016-01-29T04:13:18.430Z,18.62
2016-01-29T04:14:18.479Z,18.63
2016-01-29T04:15:18.529Z,18.49
2016-01-29T04:16:18.609Z,18.58
2016-01-29T04:17:18.643Z,18.5
2016-01-29T04:18:18.709Z,18.52
2016-01-29T04:19:18.758Z,18.56
2016-01-29T04:20:18.808Z,18.5
2016-01-29T04:21:18.890Z,18.52
2016-01-29T04:22:18.939Z,18.53
2016-01-29T04:23:18.973Z,18.53
2016-01-29T04:24:19.039Z,18.5
2016-01-29T04:25:19.090Z,18.53
2016-01-29T04:26:19.139Z,18.52
2016-01-29T04:27:19.235Z,18.53
2016-01-29T04:28:19.274Z,18.56
2016-01-29T04:29:19.308Z,18.53
2016-01-29T04:30:19.420Z,18.5
2016-01-29T04:31:19.423Z,18.49
2016-01-29T04:32:19.489Z,18.5
2016-01-29T04:33:19.538Z,18.5
2016-01-29T04:34:19.587Z,18.52
2016-01-29T04:35:19.669Z,18.52
2016-01-29T04:36:19.734Z,18.49
2016-01-29T04:37:19.754Z,18.41
2016-01-29T04:38:19.835Z,18.43
2016-01-29T04:39:19.884Z,18.45
2016-01-29T04:40:19.933Z,18.5
2016-01-29T04:41:19.982Z,18.33
2016-01-29T04:42:20.064Z,18.37
2016-01-29T04:43:20.099Z,18.4
2016-01-29T04:44:20.148Z,18.4
2016-01-29T04:45:20.230Z,18.44
2016-01-29T04:46:20.280Z,18.44
2016-01-29T04:47:20.314Z,18.41
2016-01-29T04:48:20.410Z,18.43
2016-01-29T04:49:20.475Z,18.43
2016-01-29T04:50:20.494Z,18.44
2016-01-29T04:51:20.558Z,18.4
2016-01-29T04:52:20.608Z,18.41
2016-01-29T04:53:20.658Z,18.4
2016-01-29T04:54:20.723Z,18.44
2016-01-29T04:55:20.788Z,18.43
2016-01-29T04:56:20.822Z,18.43
2016-01-29T04:57:20.903Z,18.43
2016-01-29T04:58:20.952Z,18.33
2016-01-29T04:59:20.993Z,18.38
2016-01-29T05:00:21.043Z,18.41
2016-01-29T05:01:21.108Z,18.4
2016-01-29T05:02:21.173Z,18.37
2016-01-29T05:03:21.253Z,18.38
2016-01-29T05:04:21.304Z,18.4
2016-01-29T05:05:21.337Z,18.41
2016-01-29T05:06:21.387Z,18.33
2016-01-29T05:07:21.469Z,18.41
2016-01-29T05:08:21.503Z,18.41
2016-01-29T05:09:21.552Z,18.41
2016-01-29T05:10:21.617Z,18.4
2016-01-29T05:11:21.683Z,18.41
2016-01-29T05:12:21.718Z,18.4
2016-01-29T05:13:21.767Z,18.31
2016-01-29T05:14:21.849Z,18.35
2016-01-29T05:15:21.884Z,18.35
2016-01-29T05:16:21.949Z,18.31
2016-01-29T05:17:22.014Z,18.34
2016-01-29T05:18:22.064Z,18.35
2016-01-29T05:19:22.131Z,18.31
2016-01-29T05:20:22.196Z,18.33
2016-01-29T05:21:22.277Z,18.31
2016-01-29T05:22:22.295Z,18.37
2016-01-29T05:23:22.345Z,18.37
2016-01-29T05:24:22.396Z,18.4
2016-01-29T05:25:22.461Z,18.34
2016-01-29T05:26:22.526Z,18.33
2016-01-29T05:27:22.559Z,18.4
2016-01-29T05:28:22.627Z,18.33
2016-01-29T05:29:22.691Z,18.33
2016-01-29T05:30:22.726Z,18.37
2016-01-29T05:31:22.784Z,18.33
2016-01-29T05:32:22.850Z,18.33
2016-01-29T05:33:22.900Z,18.2
2016-01-29T05:34:22.964Z,17.98
2016-01-29T05:35:23.014Z,17.85
2016-01-29T05:36:23.065Z,17.65
2016-01-29T05:37:23.129Z,17.48
2016-01-29T05:38:23.195Z,17.49
2016-01-29T05:39:23.228Z,17.39
2016-01-29T05:40:23.298Z,17.36
2016-01-29T05:41:23.410Z,17.38
2016-01-29T05:42:23.396Z,17.41
2016-01-29T05:43:23.463Z,17.42
2016-01-29T05:44:23.529Z,17.39
2016-01-29T05:45:23.563Z,17.42
2016-01-29T05:46:23.628Z,17.38
2016-01-29T05:47:23.678Z,17.39
2016-01-29T05:48:23.728Z,17.45
2016-01-29T05:49:23.793Z,17.42
2016-01-29T05:50:23.859Z,17.38
2016-01-29T05:51:23.892Z,17.42
2016-01-29T05:52:23.959Z,17.41
2016-01-29T05:53:23.852Z,17.42
2016-01-29T05:54:24.058Z,17.39
2016-01-29T05:55:24.124Z,17.39
2016-01-29T05:56:24.174Z,17.41
2016-01-29T05:57:24.241Z,17.41
2016-01-29T05:58:24.290Z,17.41
2016-01-29T05:59:24.371Z,17.31
2016-01-29T06:00:24.391Z,17.31
2016-01-29T06:01:24.456Z,17.38
2016-01-29T06:02:24.529Z,17.36
2016-01-29T06:03:24.250Z,17.29
2016-01-29T06:04:24.613Z,17.26
2016-01-29T06:05:24.661Z,17.26
2016-01-29T06:06:24.746Z,17.23
2016-01-29T06:07:24.796Z,17.22
2016-01-29T06:08:24.831Z,17.3
2016-01-29T06:09:24.912Z,17.2
2016-01-29T06:10:24.196Z,17.22
2016-01-29T06:11:25.010Z,17.16
2016-01-29T06:12:25.079Z,17.23
2016-01-29T06:13:25.144Z,17.2
2016-01-29T06:14:25.179Z,17.23
2016-01-29T06:15:25.228Z,17.2
2016-01-29T06:16:25.277Z,17.16
2016-01-29T06:17:25.343Z,17.2
2016-01-29T06:18:25.393Z,17.26
2016-01-29T06:19:25.442Z,17.16
2016-01-29T06:20:25.523Z,17.2
2016-01-29T06:21:25.556Z,17.12
2016-01-29T06:22:25.456Z,17.16
2016-01-29T06:23:25.676Z,17.24
2016-01-29T06:24:25.772Z,17.27
2016-01-29T06:25:25.775Z,17.24
2016-01-29T06:26:25.841Z,17.33
2016-01-29T06:27:25.891Z,17.42
2016-01-29T06:28:25.987Z,17.38
2016-01-29T06:29:25.990Z,17.46
2016-01-29T06:30:26.060Z,17.38
2016-01-29T06:31:26.093Z,17.45
2016-01-29T06:32:26.162Z,17.49
2016-01-29T06:33:26.212Z,17.52
2016-01-29T06:34:26.265Z,17.48
2016-01-29T06:35:26.345Z,17.49
2016-01-29T06:36:26.379Z,17.45
2016-01-29T06:37:26.445Z,17.45
2016-01-29T06:38:26.511Z,17.23
2016-01-29T06:39:26.544Z,17.16
2016-01-29T06:40:26.609Z,17.01
2016-01-29T06:41:26.660Z,16.84
2016-01-29T06:42:26.725Z,16.71
2016-01-29T06:43:26.760Z,16.61
2016-01-29T06:44:26.840Z,16.47
2016-01-29T06:45:26.890Z,16.35
2016-01-29T06:46:26.940Z,16.24
2016-01-29T06:47:26.989Z,16.15
2016-01-29T06:48:27.039Z,16.02
2016-01-29T06:49:27.120Z,16.05
2016-01-29T06:50:27.155Z,15.92
2016-01-29T06:51:27.206Z,16.04
2016-01-29T06:52:27.256Z,16.09
2016-01-29T06:53:27.322Z,16.1
2016-01-29T06:54:27.402Z,16.26
2016-01-29T06:55:27.437Z,16.38
2016-01-29T06:56:27.470Z,16.49
2016-01-29T06:57:27.537Z,16.5
2016-01-29T06:58:27.617Z,16.54
2016-01-29T06:59:27.652Z,16.61
2016-01-29T07:00:27.685Z,16.71
2016-01-29T07:01:27.782Z,16.74
2016-01-29T07:02:27.802Z,16.78
2016-01-29T07:03:27.852Z,16.78
2016-01-29T07:04:27.917Z,16.83
2016-01-29T07:05:27.998Z,16.9
2016-01-29T07:06:28.032Z,16.87
2016-01-29T07:07:28.066Z,17.05
2016-01-29T07:08:28.148Z,16.97
2016-01-29T07:09:28.228Z,16.94
2016-01-29T07:10:28.230Z,17.12
2016-01-29T07:11:28.312Z,17.14
2016-01-29T07:12:28.361Z,17.06
2016-01-29T07:13:28.412Z,17.22
2016-01-29T07:14:28.462Z,17.15
2016-01-29T07:15:28.527Z,17.19
2016-01-29T07:16:28.576Z,17.2
2016-01-29T07:17:28.642Z,17.22
2016-01-29T07:18:28.676Z,17.23
2016-01-29T07:19:28.732Z,17.3
2016-01-29T07:20:28.797Z,17.27
2016-01-29T07:21:28.863Z,17.31
2016-01-29T07:22:28.928Z,17.36
2016-01-29T07:23:28.947Z,17.31
2016-01-29T07:24:29.012Z,17.31
2016-01-29T07:25:29.078Z,17.38
2016-01-29T07:26:29.112Z,17.24
2016-01-29T07:27:29.177Z,17.02
2016-01-29T07:28:29.227Z,16.81
2016-01-29T07:29:29.293Z,16.68
2016-01-29T07:30:29.357Z,16.42
2016-01-29T07:31:29.407Z,16.38
2016-01-29T07:32:29.440Z,16.24
2016-01-29T07:33:29.507Z,16.2
2016-01-29T07:34:29.565Z,16
2016-01-29T07:35:29.617Z,15.9
2016-01-29T07:36:29.683Z,15.73
2016-01-29T07:37:29.732Z,15.72
2016-01-29T07:38:29.782Z,15.64
2016-01-29T07:39:29.830Z,15.68
2016-01-29T07:40:29.880Z,15.67
2016-01-29T07:41:29.793Z,15.73
2016-01-29T07:42:30.014Z,15.95
2016-01-29T07:43:30.048Z,16
2016-01-29T07:44:30.113Z,16.02
2016-01-29T07:45:30.164Z,16
2016-01-29T07:46:30.228Z,16.1
2016-01-29T07:47:30.294Z,16.08
2016-01-29T07:48:30.317Z,16.15
2016-01-29T07:49:30.384Z,16.23
2016-01-29T07:50:30.433Z,16.29
2016-01-29T07:51:30.498Z,16.32
2016-01-29T07:52:30.547Z,16.42
2016-01-29T07:53:30.645Z,16.38
2016-01-29T07:54:30.632Z,16.43
2016-01-29T07:55:30.698Z,16.53
2016-01-29T07:56:30.013Z,16.61
2016-01-29T07:57:30.813Z,16.65
2016-01-29T07:58:30.894Z,16.71
2016-01-29T07:59:30.944Z,16.65
2016-01-29T08:00:30.820Z,16.68
2016-01-29T08:01:31.043Z,16.72
2016-01-29T08:02:31.093Z,16.69
2016-01-29T08:03:31.142Z,16.76
2016-01-29T08:04:31.206Z,16.78
2016-01-29T08:05:31.256Z,16.78
2016-01-29T08:06:31.322Z,16.81
2016-01-29T08:07:31.372Z,16.83
2016-01-29T08:08:31.406Z,16.79
2016-01-29T08:09:31.471Z,16.9
2016-01-29T08:10:31.525Z,16.89
2016-01-29T08:11:31.605Z,16.9
2016-01-29T08:12:31.639Z,16.87
2016-01-29T08:13:31.689Z,16.94
2016-01-29T08:14:31.743Z,16.97
2016-01-29T08:15:31.635Z,16.93
2016-01-29T08:16:31.873Z,16.96
2016-01-29T08:17:31.922Z,17.02
2016-01-29T08:18:31.958Z,16.94
2016-01-29T08:19:32.022Z,16.99
2016-01-29T08:20:32.072Z,16.97
2016-01-29T08:21:32.138Z,17.02
2016-01-29T08:22:32.191Z,16.99
2016-01-29T08:23:32.272Z,17.02
2016-01-29T08:24:32.289Z,17.06
2016-01-29T08:25:32.340Z,16.96
2016-01-29T08:26:32.406Z,16.99
2016-01-29T08:27:32.456Z,17.02
2016-01-29T08:28:32.520Z,16.93
2016-01-29T08:29:32.570Z,17.01
2016-01-29T08:30:32.636Z,17.04
2016-01-29T08:31:32.685Z,17.08
2016-01-29T08:32:32.732Z,16.97
2016-01-29T08:33:32.782Z,17.04
2016-01-29T08:34:32.849Z,16.96
2016-01-29T08:35:32.897Z,16.97
2016-01-29T08:36:32.946Z,16.97
2016-01-29T08:37:33.013Z,17.02
2016-01-29T08:38:33.079Z,16.99
2016-01-29T08:39:33.129Z,17.11
2016-01-29T08:40:33.162Z,17.08
2016-01-29T08:41:33.224Z,17.14
2016-01-29T08:42:33.262Z,16.99
2016-01-29T08:43:33.329Z,16.97
2016-01-29T08:44:33.365Z,17.11
2016-01-29T08:45:33.385Z,17.05
2016-01-29T08:46:33.269Z,17.08
2016-01-29T08:47:33.485Z,17.09
2016-01-29T08:48:33.529Z,17.09
2016-01-29T08:49:33.575Z,17.09
2016-01-29T08:50:33.621Z,17.09
2016-01-29T08:51:33.682Z,17.12
2016-01-29T08:52:33.745Z,17.06
2016-01-29T08:53:33.777Z,17.11
2016-01-29T08:54:33.669Z,17.12
2016-01-29T08:55:33.903Z,17.04
2016-01-29T08:56:33.951Z,17.09
2016-01-29T08:57:34.017Z,17.09
2016-01-29T08:58:34.065Z,17.09
2016-01-29T08:59:34.101Z,17.11
2016-01-29T09:00:34.165Z,17.12
2016-01-29T09:01:34.214Z,17.08
2016-01-29T09:02:34.283Z,17.12
2016-01-29T09:03:34.335Z,17.08
2016-01-29T09:04:34.369Z,17.11
2016-01-29T09:05:34.449Z,17.11
2016-01-29T09:06:34.499Z,17.11
2016-01-29T09:07:34.548Z,17.06
2016-01-29T09:08:34.597Z,17.09
2016-01-29T09:09:34.663Z,17.12
2016-01-29T09:10:34.713Z,17.08
2016-01-29T09:11:34.777Z,17.14
2016-01-29T09:12:34.811Z,17.11
2016-01-29T09:13:34.883Z,17.11
2016-01-29T09:14:34.933Z,17.12
2016-01-29T09:15:34.982Z,17.12
2016-01-29T09:16:35.047Z,17.11
2016-01-29T09:17:35.101Z,17.11
2016-01-29T09:18:35.134Z,17.09
2016-01-29T09:19:35.205Z,17.09
2016-01-29T09:20:35.270Z,17.12
2016-01-29T09:21:35.321Z,17.11
2016-01-29T09:22:35.401Z,17.05
2016-01-29T09:23:35.419Z,17.11
2016-01-29T09:24:35.484Z,17.12
2016-01-29T09:25:35.536Z,17.11
2016-01-29T09:26:35.601Z,17.11
2016-01-29T09:27:35.635Z,17.09
2016-01-29T09:28:35.700Z,17.11
2016-01-29T09:29:35.860Z,17.11
2016-01-29T09:30:35.816Z,17.12
2016-01-29T09:31:35.884Z,17.14
2016-01-29T09:32:35.934Z,17.05
2016-01-29T09:33:36.017Z,17.12
2016-01-29T09:34:36.020Z,17.15
2016-01-29T09:35:36.101Z,17.09
2016-01-29T09:36:36.134Z,17.14
2016-01-29T09:37:36.186Z,17.11
2016-01-29T09:38:36.251Z,17.08
2016-01-29T09:39:36.315Z,17.11
2016-01-29T09:40:36.381Z,17.11
2016-01-29T09:41:36.402Z,17.12
2016-01-29T09:42:36.468Z,17.08
2016-01-29T09:43:36.532Z,17.14
2016-01-29T09:44:36.582Z,17.14
2016-01-29T09:45:36.713Z,17.11
2016-01-29T09:46:36.715Z,17.14
2016-01-29T09:47:36.734Z,17.11
2016-01-29T09:48:36.799Z,17.14
2016-01-29T09:49:36.850Z,17.05
2016-01-29T09:50:36.993Z,17.11
2016-01-29T09:51:36.981Z,17.08
2016-01-29T09:52:37.014Z,17.08
2016-01-29T09:53:37.081Z,17.08
2016-01-29T09:54:37.132Z,17.06
2016-01-29T09:55:37.182Z,17.09
2016-01-29T09:56:37.247Z,17.11
2016-01-29T09:57:37.312Z,17.05
2016-01-29T09:58:37.347Z,17.15
2016-01-29T09:59:37.396Z,17.11
2016-01-29T10:00:37.463Z,17.12
2016-01-29T10:01:37.512Z,17.09
2016-01-29T10:02:37.563Z,17.08
2016-01-29T10:03:37.617Z,17.12
2016-01-29T10:04:37.684Z,17.14
2016-01-29T10:05:37.734Z,17.12
2016-01-29T10:06:37.768Z,17.09
2016-01-29T10:07:37.833Z,17.06
2016-01-29T10:08:37.898Z,17.15
2016-01-29T10:09:37.949Z,17.15
2016-01-29T10:10:37.998Z,17.11
2016-01-29T10:11:38.079Z,17.11
2016-01-29T10:12:38.128Z,17.14
2016-01-29T10:13:38.162Z,17.14
2016-01-29T10:14:38.227Z,17.14
2016-01-29T10:15:38.276Z,17.12
2016-01-29T10:16:38.328Z,17.08
2016-01-29T10:17:38.378Z,17.11
2016-01-29T10:18:38.444Z,17.14
2016-01-29T10:19:38.556Z,17.09
2016-01-29T10:20:38.543Z,17.08
2016-01-29T10:21:38.656Z,17.08
2016-01-29T10:22:38.675Z,17.09
2016-01-29T10:23:38.724Z,17.16
2016-01-29T10:24:38.773Z,17.09
2016-01-29T10:25:38.839Z,17.15
2016-01-29T10:26:38.873Z,17.09
2016-01-29T10:27:38.938Z,17.12
2016-01-29T10:28:39.003Z,17.08
2016-01-29T10:29:39.037Z,17.06
2016-01-29T10:30:39.102Z,17.09
2016-01-29T10:31:39.152Z,17.08
2016-01-29T10:32:39.234Z,17.11
2016-01-29T10:33:39.299Z,17.19
2016-01-29T10:34:39.319Z,17.15
2016-01-29T10:35:39.368Z,17.15
2016-01-29T10:36:39.438Z,17.12
2016-01-29T10:37:39.503Z,17.19
2016-01-29T10:38:39.538Z,17.14
2016-01-29T10:39:39.586Z,17.15
2016-01-29T10:40:39.652Z,17.15
2016-01-29T10:41:39.703Z,17.2
2016-01-29T10:42:39.752Z,17.12
2016-01-29T10:43:39.802Z,17.2
2016-01-29T10:44:39.866Z,17.08
2016-01-29T10:45:39.933Z,17.09
2016-01-29T10:46:39.998Z,17.12
2016-01-29T10:47:40.016Z,17.15
2016-01-29T10:48:40.081Z,17.14
2016-01-29T10:49:40.148Z,17.16
2016-01-29T10:50:40.213Z,17.15
2016-01-29T10:51:40.246Z,17.11
2016-01-29T10:52:40.313Z,17.12
2016-01-29T10:53:40.363Z,17.14
2016-01-29T10:54:40.413Z,17.05
2016-01-29T10:55:40.477Z,17.06
2016-01-29T10:56:40.542Z,17.11
2016-01-29T10:57:40.593Z,17.08
2016-01-29T10:58:40.642Z,17.11
2016-01-29T10:59:40.677Z,17.06
2016-01-29T11:00:40.741Z,17.09
2016-01-29T11:01:40.808Z,17.08
2016-01-29T11:02:40.857Z,17.12
2016-01-29T11:03:40.896Z,17.11
2016-01-29T11:04:40.961Z,17.09
2016-01-29T11:05:41.015Z,17.12
2016-01-29T11:06:41.112Z,17.15
2016-01-29T11:07:41.145Z,17.14
2016-01-29T11:08:41.210Z,17.11
2016-01-29T11:09:41.246Z,17.09
2016-01-29T11:10:41.280Z,17.12
2016-01-29T11:11:41.360Z,17.08
2016-01-29T11:12:41.410Z,17.14
2016-01-29T11:13:41.463Z,17.08
2016-01-29T11:14:41.496Z,17.08
2016-01-29T11:15:41.561Z,17.11
2016-01-29T11:16:41.627Z,17.11
2016-01-29T11:17:41.662Z,17.08
2016-01-29T11:18:41.742Z,17.15
2016-01-29T11:19:41.775Z,17.11
2016-01-29T11:20:41.825Z,17.14
2016-01-29T11:21:41.894Z,17.12
2016-01-29T11:22:41.803Z,17.12
2016-01-29T11:23:42.008Z,17.09
2016-01-29T11:24:42.074Z,17.06
2016-01-29T11:25:42.109Z,17.08
2016-01-29T11:26:42.173Z,17.08
2016-01-29T11:27:42.223Z,17.14
2016-01-29T11:28:42.304Z,17.02
2016-01-29T11:29:42.339Z,17.09
2016-01-29T11:30:42.390Z,17.09
2016-01-29T11:31:42.440Z,17.09
2016-01-29T11:32:42.506Z,17.09
2016-01-29T11:33:42.548Z,17.15
2016-01-29T11:34:42.613Z,17.11
2016-01-29T11:35:42.679Z,17.11
2016-01-29T11:36:42.729Z,17.08
2016-01-29T11:37:42.778Z,17.05
2016-01-29T11:38:42.828Z,17.08
2016-01-29T11:39:42.877Z,17.12
2016-01-29T11:40:42.944Z,17.09
2016-01-29T11:41:42.993Z,17.06
2016-01-29T11:42:43.058Z,17.12
2016-01-29T11:43:43.108Z,17.11
2016-01-29T11:44:43.173Z,17.06
2016-01-29T11:45:43.208Z,17.12
2016-01-29T11:46:43.273Z,17.14
2016-01-29T11:47:43.323Z,17.09
2016-01-29T11:48:43.372Z,17.12
2016-01-29T11:49:43.438Z,17.05
2016-01-29T11:50:43.472Z,17.12
2016-01-29T11:51:43.537Z,17.09
2016-01-29T11:52:43.619Z,17.11
2016-01-29T11:53:43.653Z,17.08
2016-01-29T11:54:43.719Z,17.11
2016-01-29T11:55:43.784Z,17.11
2016-01-29T11:56:43.819Z,17.11
2016-01-29T11:57:43.883Z,17.09
2016-01-29T11:58:43.932Z,17.12
2016-01-29T11:59:43.982Z,17.09
2016-01-29T12:00:44.035Z,17.09
2016-01-29T12:01:44.100Z,17.14
2016-01-29T12:02:44.150Z,17.09
2016-01-29T12:03:44.200Z,17.14
2016-01-29T12:04:44.252Z,17.06
2016-01-29T12:05:44.317Z,17.12
2016-01-29T12:06:44.373Z,17.12
2016-01-29T12:07:44.538Z,17.11
2016-01-29T12:08:44.478Z,17.11
2016-01-29T12:09:44.563Z,17.12
2016-01-29T12:10:44.614Z,17.08
2016-01-29T12:11:44.648Z,17.02
2016-01-29T12:12:44.682Z,17.06
2016-01-29T12:13:44.590Z,17.06
2016-01-29T12:14:44.812Z,17.02
2016-01-29T12:15:44.861Z,17.09
2016-01-29T12:16:44.927Z,16.99
2016-01-29T12:17:44.977Z,17.12
2016-01-29T12:18:45.026Z,17.11
2016-01-29T12:19:45.080Z,17.08
2016-01-29T12:20:44.989Z,17.11
2016-01-29T12:21:45.195Z,17.05
2016-01-29T12:22:45.244Z,17.02
2016-01-29T12:23:45.310Z,16.94
2016-01-29T12:24:45.360Z,17.09
2016-01-29T12:25:45.409Z,17.02
2016-01-29T12:26:45.521Z,16.99
2016-01-29T12:27:45.509Z,17.06
2016-01-29T12:28:45.575Z,16.97
2016-01-29T12:29:45.624Z,16.99
2016-01-29T12:30:45.688Z,16.94
2016-01-29T12:31:45.740Z,17.04
2016-01-29T12:32:45.805Z,16.97
2016-01-29T12:33:45.854Z,16.97
2016-01-29T12:34:45.893Z,17.04
2016-01-29T12:35:45.960Z,16.99
2016-01-29T12:36:46.024Z,16.94
2016-01-29T12:37:46.089Z,16.97
2016-01-29T12:38:46.140Z,17.06
2016-01-29T12:39:46.173Z,16.97
2016-01-29T12:40:46.240Z,16.96
2016-01-29T12:41:46.291Z,17.01
2016-01-29T12:42:46.341Z,17.06
2016-01-29T12:43:46.407Z,17.11
2016-01-29T12:44:46.707Z,16.93
2016-01-29T12:45:46.510Z,17.08
2016-01-29T12:46:46.560Z,16.97
2016-01-29T12:47:46.626Z,16.99
2016-01-29T12:48:46.675Z,17.05
2016-01-29T12:49:46.725Z,17.01
2016-01-29T12:50:46.791Z,17.04
2016-01-29T12:51:46.871Z,17.08
2016-01-29T12:52:47.015Z,16.91
2016-01-29T12:53:46.955Z,17.02
2016-01-29T12:54:46.989Z,16.94
2016-01-29T12:55:47.050Z,16.97